Portada
METAR-TAF:

METAR-TAF

Aeroports :

Luganville, Illa Espíritu Santo, Vanuatu

latitud: 15-31S, longitud: 167-13E, altitud: 41 m

Observació

L'informe es va fer fa 54 minuts, a les 09:00 UTC
Vent calma
Temperatura 25°C
Humitat 94%
Pressió 1012 hPa
Visibilitat 10 km o més
Escasses núvols a una alçada de 2500 ft

METAR: NVSS 060900Z 00000KT 9999 FEW025 25/24 Q1012

Hora: 20:54 (09:54 UTC)

Pronòstic

L'informe es va fer fa 5 hores i 24 minuts, a les 04:30 UTC
Pronòstic vàlid del 06 a les 06 UTC al 07 a les 06 UTC
Vent 3 kt amb direcció variable
Visibilitat 10 km o més
Núvols disperses a una alçada de 2000 ft

TAF: NVSS 060430Z 0606/0706 VRB03KT 9999 SCT020

Observacions i pronòstics meteorològics de més de 4000 aeroports (METAR i TAF).

Les estacions disponibles són els punts grocs i vermells al mapa.

Posi el ratolí al punt desitjat per veure el nom de l'estació.

Feu clic per veure les observacions i els pronòstics meteorològics.

Per canviar el mapa: feu clic els botons verds amb una creu de color negre per apropar; al botó verd amb un guió per allunyar la imatge; o en les fletxes verdes per a mapes adjacents.


METAR-TAF: